^^
Datos históricos de la estación: Murcia-Puente Tocinos
Diario Informe para Marzo 18, 2019 Unidades:  Ingés    Métrico   Ambas
Diario Semanal Mensual Anual
  Máxima: Mínima: Promedio:
Temperatura: 74.7 °F 59.7 °F 67.5 °F
Punto de rocio: 57 °F 37 °F 44.8 °F
Humedad: 80% 26% 46%
Velocidad viento: 9.7mph 0mph 4.4mph
Racha viento: 19mph - -
Viento- - SSE
Presión: 29.8 in 29.7 in -
Precipitación: 0 in    
 
 
Tabla de datos para Marzo 18, 2019
Hora Temperatura Punto de rocio Presión Viento Velocidad viento Racha viento Humedad Intensidad lluvia(por hora) Nubes
00:04 68.9 °F 39.7 °F 29.8 in ENE 2.4 mph 5 mph 34.5% 0 in
00:09 69.1 °F 40.1 °F 29.8 in ENE 2.4 mph 4 mph 34.9% 0 in
00:14 68.9 °F 39.6 °F 29.8 in NE 2.4 mph 5 mph 34.3% 0 in
00:19 69.1 °F 39.7 °F 29.8 in NE 2.2 mph 5 mph 34.3% 0 in
00:24 69.1 °F 39.7 °F 29.8 in NE 2 mph 3 mph 34.4% 0 in
00:29 69.1 °F 40.8 °F 29.8 in NE 1.2 mph 2.3 mph 36% 0 in
00:34 68.7 °F 40.3 °F 29.8 in Calm   2 mph 35.4% 0 in
00:39 68.7 °F 40.1 °F 29.8 in Calm   1.4 mph 35.2% 0 in
00:44 68.5 °F 40.5 °F 29.8 in Calm   2.9 mph 36% 0 in
00:49 68.5 °F 40.5 °F 29.8 in NE 0.6 mph 3.6 mph 35.9% 0 in
00:54 68.5 °F 39.7 °F 29.8 in NE 1.4 mph 4 mph 35% 0 in
00:59 68.5 °F 39.7 °F 29.8 in NE 1.6 mph 3 mph 35% 0 in
01:04 68.7 °F 40.5 °F 29.8 in NE 2 mph 3.5 mph 35.9% 0 in
01:09 68.7 °F 40.6 °F 29.8 in NE 1.9 mph 3 mph 35.9% 0 in
01:14 68.7 °F 40.5 °F 29.8 in NE 1.8 mph 2.4 mph 35.8% 0 in
01:19 68.7 °F 39.9 °F 29.8 in NE 1.7 mph 2.9 mph 35.1% 0 in
01:24 68.7 °F 40.6 °F 29.8 in NE 1.4 mph 3 mph 35.9% 0 in
01:29 68.7 °F 41.2 °F 29.8 in NE 1.4 mph 3 mph 36.7% 0 in
01:34 68.7 °F 41.4 °F 29.8 in ONO 1.4 mph 4.3 mph 37.1% 0 in
01:39 68.5 °F 40.6 °F 29.8 in Oeste 1.6 mph 5 mph 36.2% 0 in
01:44 68.4 °F 41.2 °F 29.8 in ONO 2.4 mph 5 mph 37% 0 in
01:49 68.4 °F 41.5 °F 29.8 in ONO 2 mph 4 mph 37.8% 0 in
01:54 68 °F 42.1 °F 29.8 in NE 1.4 mph 4.6 mph 38.9% 0 in
01:59 67.5 °F 42.6 °F 29.8 in Este 1.6 mph 5 mph 40.5% 0 in
02:04 66.9 °F 42.6 °F 29.8 in Este 1.8 mph 3 mph 41.2% 0 in
02:09 66.7 °F 42.6 °F 29.8 in Este 1.1 mph 3 mph 41.6% 0 in
02:14 66.6 °F 42.8 °F 29.8 in Calm   3 mph 42% 0 in
02:19 66.4 °F 42.6 °F 29.8 in Calm   2.3 mph 42.1% 0 in
02:24 66.4 °F 42.8 °F 29.8 in Calm   3.1 mph 42.3% 0 in
02:29 66.6 °F 42.4 °F 29.8 in Sur 0.7 mph 6.9 mph 41.8% 0 in
02:34 66.4 °F 43.2 °F 29.8 in SE 1.8 mph 8.7 mph 43% 0 in
02:39 65.1 °F 42.4 °F 29.8 in Sur 3.3 mph 9.2 mph 43.5% 0 in
02:44 64.9 °F 41.7 °F 29.8 in SSE 5.9 mph 7 mph 42.8% 0 in
02:49 64.9 °F 41.4 °F 29.8 in Sur 5.3 mph 6 mph 42.1% 0 in
02:54 65.1 °F 41.4 °F 29.8 in SSO 4.3 mph 6 mph 42% 0 in
02:59 65.1 °F 41.4 °F 29.8 in SO 3.9 mph 5.2 mph 41.8% 0 in
03:04 65.3 °F 41 °F 29.8 in OSO 3.1 mph 5 mph 41% 0 in
03:09 65.5 °F 41 °F 29.8 in Oeste 3.3 mph 5.2 mph 41% 0 in
03:14 65.3 °F 41 °F 29.8 in Oeste 3.6 mph 5 mph 41% 0 in
03:19 65.1 °F 41.9 °F 29.8 in SE 3.3 mph 6.2 mph 42.7% 0 in
03:24 64.4 °F 42.1 °F 29.8 in SSE 2.9 mph 6 mph 44% 0 in
03:29 64.2 °F 41.7 °F 29.8 in SSE 3 mph 5 mph 44% 0 in
03:34 64 °F 41.9 °F 29.8 in Sur 3.1 mph 5.2 mph 44.4% 0 in
03:39 64 °F 42.3 °F 29.7 in SSO 3.1 mph 5.2 mph 44.9% 0 in
03:44 64 °F 41.7 °F 29.7 in SSO 3.1 mph 5 mph 44% 0 in
03:49 64 °F 41.7 °F 29.7 in SSO 2.8 mph 5 mph 44% 0 in
03:54 64 °F 41.9 °F 29.7 in Sur 2.4 mph 5.9 mph 44.4% 0 in
03:59 64 °F 41.4 °F 29.7 in SSO 2.9 mph 8.1 mph 43.6% 0 in
04:04 64 °F 40.6 °F 29.7 in SO 3.6 mph 8.5 mph 42.4% 0 in
04:09 64 °F 40.5 °F 29.7 in SSO 3.7 mph 9 mph 42% 0 in
04:14 64 °F 39.9 °F 29.7 in SSO 4 mph 5.2 mph 41.1% 0 in
04:19 64.2 °F 39.9 °F 29.7 in SO 3.4 mph 5 mph 41.1% 0 in
04:24 64.2 °F 41 °F 29.7 in NO 2.4 mph 5 mph 42.7% 0 in
04:29 64 °F 41.7 °F 29.7 in NO 2 mph 5.2 mph 44.1% 0 in
04:34 63.3 °F 42.4 °F 29.7 in SE 1.4 mph 6.2 mph 46.3% 0 in
04:39 62.4 °F 42.4 °F 29.7 in SSE 2.2 mph 6.2 mph 48% 0 in
04:44 61.7 °F 41.9 °F 29.7 in SSE 3.6 mph 6.9 mph 48.1% 0 in
04:49 61.5 °F 41.4 °F 29.7 in SSE 3.7 mph 7 mph 47.6% 0 in
04:54 61.9 °F 41.4 °F 29.7 in SSE 4 mph 6 mph 47% 0 in
04:59 62.1 °F 41.2 °F 29.7 in Sur 3.5 mph 5 mph 46.3% 0 in
05:04 62.2 °F 41.4 °F 29.7 in Sur 2.9 mph 4.7 mph 46.5% 0 in
05:09 62.1 °F 41.5 °F 29.7 in Sur 2.7 mph 5 mph 46.8% 0 in
05:14 62.1 °F 41.7 °F 29.7 in Sur 2.4 mph 5 mph 47.3% 0 in
05:19 62.1 °F 42.1 °F 29.7 in Sur 1.4 mph 2 mph 47.9% 0 in
05:24 62.1 °F 41.5 °F 29.7 in Calm   4.6 mph 47% 0 in
05:29 62.2 °F 41.5 °F 29.7 in Sur 0.7 mph 5 mph 46.6% 0 in
05:34 62.4 °F 42.3 °F 29.7 in Sur 1.8 mph 3 mph 47.5% 0 in
05:39 62.4 °F 42.1 °F 29.7 in Sur 1.7 mph 4.6 mph 47.3% 0 in
05:44 62.4 °F 42.4 °F 29.7 in Sur 1.4 mph 5 mph 48% 0 in
05:49 62.2 °F 42.3 °F 29.7 in Sur 0.8 mph   47.8% 0 in
05:54 62.2 °F 41.7 °F 29.7 in Calm   3.6 mph 47% 0 in
05:59 62.2 °F 42.4 °F 29.7 in OSO 0.6 mph 4.6 mph 48.3% 0 in
06:04 62.1 °F 42.4 °F 29.7 in OSO 1.4 mph 5 mph 48.6% 0 in
06:09 61.7 °F 42.3 °F 29.7 in OSO 1.4 mph 2.3 mph 49% 0 in
06:14 61.5 °F 42.6 °F 29.7 in OSO 1.4 mph 2 mph 49.9% 0 in
06:19 61.3 °F 42.4 °F 29.7 in OSO 0.8 mph 2.9 mph 50% 0 in
06:24 61.2 °F 42.1 °F 29.7 in Calm   3 mph 49.2% 0 in
06:29 61.2 °F 41.7 °F 29.7 in OSO 0.6 mph 3.6 mph 48.7% 0 in
06:34 61 °F 41.4 °F 29.7 in OSO 1.4 mph 4 mph 48.4% 0 in
06:39 61 °F 41.7 °F 29.7 in OSO 0.9 mph 2.3 mph 49% 0 in
06:44 60.8 °F 42.1 °F 29.7 in Calm   3.6 mph 50.3% 0 in
06:49 60.6 °F 42.4 °F 29.7 in Calm   4.6 mph 51% 0 in
06:54 60.4 °F 42.3 °F 29.7 in Calm   5 mph 51.1% 0 in
06:59 60.3 °F 42.1 °F 29.7 in NNO 0.6 mph 2.9 mph 51.1% 0 in
07:04 60.1 °F 42.1 °F 29.7 in North 1.4 mph 4.6 mph 51.2% 0 in
07:09 60.1 °F 41 °F 29.7 in Este 1.6 mph 5 mph 49.5% 0 in
07:14 59.7 °F 40.6 °F 29.7 in SE 2 mph 5 mph 49.3% 0 in
07:19 59.7 °F 40.8 °F 29.7 in SE 2.4 mph 5.4 mph 49.6% 0 in
07:24 59.7 °F 41 °F 29.7 in SE 2.9 mph 5 mph 50% 0 in
07:29 59.9 °F 40.8 °F 29.7 in SSE 2.3 mph 4.7 mph 49.1% 0 in
07:34 60.4 °F 41.2 °F 29.7 in SSE 1.4 mph 5.9 mph 49% 0 in
07:39 60.6 °F 41.5 °F 29.7 in Sur 2.1 mph 6 mph 49.4% 0 in
07:44 61 °F 42.1 °F 29.7 in SSO 3.1 mph 5 mph 50% 0 in
07:49 61 °F 42.3 °F 29.7 in Sur 3 mph 5 mph 49.9% 0 in
07:54 61.2 °F 42.3 °F 29.7 in Sur 2.9 mph 5 mph 49.7% 0 in
07:59 61.5 °F 42.4 °F 29.7 in SSE 2.5 mph 4.6 mph 49.3% 0 in
08:04 61.9 °F 43.3 °F 29.7 in SSE 2 mph 5 mph 50.8% 0 in
08:09 62.1 °F 43.9 °F 29.7 in SSE 1.9 mph 3 mph 51.5% 0 in
08:14 62.2 °F 44.8 °F 29.7 in SSE 1.8 mph 4.6 mph 52.5% 0 in
08:19 62.6 °F 44.8 °F 29.7 in ESE 1.7 mph 5 mph 52.2% 0 in
08:24 63 °F 44.6 °F 29.7 in NE 1.4 mph 3 mph 51.1% 0 in
08:29 63 °F 44.1 °F 29.7 in NE 1.4 mph 3 mph 50% 0 in
08:34 63 °F 44.1 °F 29.7 in NE 1.4 mph 3.6 mph 50% 0 in
08:39 63 °F 43.9 °F 29.7 in NNO 1.4 mph 4.6 mph 49.7% 0 in
08:44 63 °F 44.1 °F 29.7 in NO 1.4 mph 5 mph 50.1% 0 in
08:49 63 °F 45 °F 29.7 in NO 1.6 mph 5 mph 51.8% 0 in
08:54 63.1 °F 44.8 °F 29.7 in ONO 2 mph 4.6 mph 51.2% 0 in
08:59 63.1 °F 43.7 °F 29.7 in ONO 2.2 mph 5.8 mph 48.9% 0 in
09:04 63.3 °F 42.6 °F 29.8 in ONO 2.4 mph 6 mph 46.6% 0 in
09:09 63.9 °F 41.2 °F 29.8 in OSO 2.6 mph 5 mph 43.5% 0 in
09:14 64.4 °F 40.6 °F 29.8 in SSO 2.9 mph 6.2 mph 41.6% 0 in
09:19 64.9 °F 40.1 °F 29.8 in SSO 3.2 mph 6.2 mph 40% 0 in
09:24 65.5 °F 40.6 °F 29.8 in SSE 3.6 mph 6 mph 40% 0 in
09:29 65.8 °F 40.5 °F 29.8 in SE 3.4 mph 6.2 mph 39.2% 0 in
09:34 66 °F 40.3 °F 29.8 in Sur 3.1 mph 6 mph 38.8% 0 in
09:39 66.4 °F 40.5 °F 29.8 in SO 3.1 mph 5.2 mph 38.6% 0 in
09:44 66.6 °F 40.3 °F 29.8 in OSO 3.1 mph 5 mph 38.1% 0 in
09:49 66.9 °F 40.1 °F 29.8 in OSO 2.8 mph 5.2 mph 37.6% 0 in
09:54 67.1 °F 40.5 °F 29.7 in ONO 2.4 mph 5 mph 37.7% 0 in
09:59 67.6 °F 41 °F 29.7 in SO 2.4 mph 5 mph 37.8% 0 in
10:04 67.8 °F 40.6 °F 29.7 in OSO 2.4 mph 5 mph 37% 0 in
10:09 68.4 °F 40.8 °F 29.7 in OSO 2.2 mph 5.2 mph 36.7% 0 in
10:14 68.7 °F 40.5 °F 29.7 in OSO 1.8 mph 5 mph 35.9% 0 in
10:19 69.3 °F 40.5 °F 29.7 in NNO 1.9 mph 6.2 mph 35.1% 0 in
10:24 69.8 °F 40.8 °F 29.7 in OSO 2 mph 6.9 mph 34.9% 0 in
10:29 69.8 °F 39.6 °F 29.7 in NO 2.4 mph 8.5 mph 33.1% 0 in
10:34 70.2 °F 39.9 °F 29.7 in Oeste 3.1 mph 9 mph 33.4% 0 in
10:39 70.2 °F 39.6 °F 29.7 in OSO 3.9 mph 9.2 mph 32.9% 0 in
10:44 70 °F 39.2 °F 29.7 in OSO 5.2 mph 9 mph 32.6% 0 in
10:49 70 °F 39.6 °F 29.7 in OSO 5 mph 10.4 mph 33% 0 in
10:54 69.8 °F 39.2 °F 29.7 in OSO 4.7 mph 10 mph 32.8% 0 in
10:59 69.6 °F 39.2 °F 29.7 in ONO 4.7 mph 9 mph 33% 0 in
11:04 70 °F 39.6 °F 29.7 in North 4.7 mph 7 mph 33% 0 in
11:09 70.2 °F 39.2 °F 29.7 in Oeste 4.2 mph 6 mph 32.3% 0 in
11:14 70.3 °F 39 °F 29.7 in SSO 3.1 mph 6 mph 32% 0 in
11:19 70.5 °F 39.2 °F 29.7 in SSO 3 mph 7.4 mph 32% 0 in
11:24 70.9 °F 39.6 °F 29.7 in OSO 2.9 mph 7 mph 32% 0 in
11:29 71.1 °F 39.2 °F 29.7 in ONO 3 mph 8.1 mph 31.3% 0 in
11:34 71.6 °F 39.2 °F 29.7 in NNE 3.1 mph 8 mph 31% 0 in
11:39 72.3 °F 39.6 °F 29.7 in NE 2.6 mph 10.4 mph 30.5% 0 in
11:44 72.7 °F 38.5 °F 29.7 in Oeste 1.8 mph 10.4 mph 28.9% 0 in
11:49 72.5 °F 38.1 °F 29.7 in OSO 3.2 mph 9.2 mph 28.8% 0 in
11:54 72.3 °F 38.5 °F 29.7 in Oeste 5.4 mph 16.1 mph 29.2% 0 in
11:59 72.1 °F 38.5 °F 29.7 in ONO 6.3 mph 16.1 mph 29.4% 0 in
12:04 72.1 °F 38.1 °F 29.7 in OSO 7.4 mph 16 mph 29.1% 0 in
12:09 72.1 °F 38.3 °F 29.7 in SO 7 mph 15 mph 29.2% 0 in
12:14 72.3 °F 39 °F 29.7 in Oeste 6.4 mph 13.5 mph 29.8% 0 in
12:19 72.3 °F 39.2 °F 29.7 in NO 6.4 mph 14 mph 30% 0 in
12:24 72.1 °F 39.2 °F 29.7 in ONO 6.4 mph 14 mph 30.3% 0 in
12:29 72.1 °F 39 °F 29.7 in ONO 6.4 mph 12 mph 29.9% 0 in
12:34 72.5 °F 39 °F 29.7 in Oeste 6.4 mph 12.7 mph 29.7% 0 in
12:39 72.7 °F 38.7 °F 29.7 in NO 5.6 mph 13 mph 29.1% 0 in
12:44 72.5 °F 38.8 °F 29.7 in ONO 4.3 mph 10.4 mph 29.6% 0 in
12:49 72.3 °F 39 °F 29.7 in NO 4.7 mph 11.5 mph 29.8% 0 in
12:54 72.5 °F 39.2 °F 29.7 in NO 5.2 mph 12.7 mph 29.8% 0 in
12:59 72.5 °F 38.8 °F 29.7 in ONO 5 mph 13 mph 29.4% 0 in
13:04 72.9 °F 39.7 °F 29.7 in NNO 4.7 mph 8.1 mph 30.1% 0 in
13:09 73.4 °F 39.7 °F 29.7 in NO 4.3 mph 11.4 mph 29.5% 0 in
13:14 73.6 °F 39 °F 29.7 in SO 3.6 mph 13.5 mph 28.7% 0 in
13:19 73.2 °F 38.8 °F 29.7 in SSO 4.9 mph 13 mph 28.8% 0 in
13:24 73.2 °F 39 °F 29.7 in Oeste 6.9 mph 17.5 mph 29% 0 in
13:29 73.6 °F 38.7 °F 29.7 in ONO 7.2 mph 17.3 mph 28.3% 0 in
13:34 73.8 °F 39.2 °F 29.7 in ONO 7.6 mph 17 mph 28.6% 0 in
13:39 73.6 °F 38.5 °F 29.7 in NO 7.5 mph 14 mph 28% 0 in
13:44 73.4 °F 38.3 °F 29.7 in NO 7.4 mph 10 mph 28% 0 in
13:49 73.6 °F 38.3 °F 29.7 in NO 6.3 mph 10.7 mph 27.8% 0 in
13:54 73.8 °F 38.3 °F 29.7 in NO 4.7 mph 12.5 mph 27.7% 0 in
13:59 73.8 °F 37.8 °F 29.7 in OSO 5.2 mph 13 mph 27.1% 0 in
14:04 73.6 °F 37.8 °F 29.7 in NE 5.9 mph 13 mph 27.3% 0 in
14:09 73.8 °F 38.3 °F 29.7 in NO 5.7 mph 11.8 mph 27.8% 0 in
14:14 73.8 °F 37.8 °F 29.7 in Oeste 5.2 mph 13 mph 27% 0 in
14:19 73.8 °F 38.3 °F 29.7 in ONO 5.6 mph 13.8 mph 27.6% 0 in
14:24 74.3 °F 38.3 °F 29.7 in NO 6.2 mph 19 mph 27.1% 0 in
14:29 74.3 °F 37.9 °F 29.7 in ONO 7.1 mph 19 mph 26.9% 0 in
14:34 74.1 °F 37.9 °F 29.7 in NO 8.5 mph 15 mph 27% 0 in
14:39 73.9 °F 37.8 °F 29.7 in North 7.9 mph 14 mph 26.9% 0 in
14:44 73.9 °F 37.9 °F 29.7 in NO 6.9 mph 13 mph 27.2% 0 in
14:49 74.3 °F 37.9 °F 29.7 in NO 6.6 mph 13.8 mph 26.8% 0 in
14:54 74.5 °F 37.8 °F 29.7 in NO 6.2 mph 14 mph 26.6% 0 in
14:59 74.1 °F 37.9 °F 29.7 in ONO 6.3 mph 17.5 mph 27% 0 in
15:04 73.9 °F 37.9 °F 29.7 in ONO 6.4 mph 17.3 mph 27% 0 in
15:09 73.9 °F 37.9 °F 29.7 in OSO 6.4 mph 14 mph 27% 0 in
15:14 74.5 °F 37.4 °F 29.7 in ONO 6.4 mph 8.1 mph 26.1% 0 in
15:19 74.7 °F 37.9 °F 29.7 in NNO 5.6 mph 11.8 mph 26.5% 0 in
15:24 74.5 °F 37.4 °F 29.7 in NO 4.3 mph 12 mph 26% 0 in
15:29 74.5 °F 38.1 °F 29.7 in NNO 5 mph 14.7 mph 26.8% 0 in
15:34 74.5 °F 37.6 °F 29.7 in NO 5.9 mph 16.1 mph 26.3% 0 in
15:39 74.1 °F 37 °F 29.7 in ONO 7 mph 16 mph 26.1% 0 in
15:44 73.9 °F 37.2 °F 29.7 in NO 8.7 mph 13 mph 26.3% 0 in
15:49 73.9 °F 37 °F 29.7 in ONO 7.6 mph 10.4 mph 26.1% 0 in
15:54 73.9 °F 37 °F 29.7 in ONO 5.9 mph 10 mph 26.1% 0 in
15:57 74.1 °F 37 °F 29.7 in ONO 5.9 mph 7 mph 26% 0 in
17:09 73 °F 50.4 °F 29.7 in ENE 4.5 mph 9.2 mph 44.7% 0 in
17:14 72.5 °F 51.1 °F 29.7 in Este 4.7 mph 9.2 mph 46.9% 0 in
17:19 72.1 °F 50.4 °F 29.7 in ESE 5 mph 9.7 mph 46.5% 0 in
17:24 72.1 °F 49.8 °F 29.7 in ENE 5.4 mph 10.4 mph 45.6% 0 in
17:29 72.1 °F 48.6 °F 29.7 in NNE 5.4 mph 10.7 mph 43.1% 0 in
17:34 72.3 °F 48.7 °F 29.7 in NE 5.4 mph 11 mph 43.3% 0 in
17:39 72.5 °F 48.2 °F 29.7 in NE 4.8 mph 8.1 mph 42.1% 0 in
17:44 72.7 °F 48.4 °F 29.7 in NE 4 mph 9.2 mph 42.2% 0 in
17:49 72.7 °F 48.2 °F 29.7 in ENE 4.5 mph 10.4 mph 41.7% 0 in
17:54 72.7 °F 48.7 °F 29.7 in Este 5.2 mph 10 mph 42.6% 0 in
17:59 72.7 °F 48 °F 29.7 in ENE 4.8 mph 10.4 mph 41.6% 0 in
18:04 72.5 °F 49.8 °F 29.7 in NE 4.3 mph 12.5 mph 45% 0 in
18:09 72.1 °F 50.2 °F 29.7 in NE 5.8 mph 15 mph 45.8% 0 in
18:14 72.1 °F 50.7 °F 29.7 in NE 8.1 mph 15 mph 47% 0 in
18:19 72 °F 52 °F 29.7 in NE 8.3 mph 15.9 mph 49.7% 0 in
18:24 71.4 °F 52.3 °F 29.7 in NE 8.5 mph 16.1 mph 50.8% 0 in
18:29 71.4 °F 52.3 °F 29.7 in NE 8.5 mph 14 mph 51.1% 0 in
18:34 71.2 °F 53.8 °F 29.7 in NNE 8.5 mph 14 mph 54.2% 0 in
18:39 70.9 °F 53.8 °F 29.7 in NE 8.9 mph 17.3 mph 55.1% 0 in
18:44 70.5 °F 53.4 °F 29.7 in NE 9.7 mph 17 mph 54.5% 0 in
18:49 70.5 °F 53.1 °F 29.7 in NE 9.1 mph 13.8 mph 54% 0 in
18:54 70.9 °F 52 °F 29.7 in NE 8.1 mph 14 mph 51.1% 0 in
18:59 71.1 °F 53.2 °F 29.7 in NE 8.1 mph 14 mph 53.4% 0 in
19:04 71.1 °F 54.7 °F 29.7 in NNE 8.1 mph 13 mph 56.3% 0 in
19:09 70.5 °F 54.3 °F 29.7 in NE 7.6 mph 13 mph 56.3% 0 in
19:14 70.3 °F 53.4 °F 29.7 in NE 6.9 mph 13 mph 54.9% 0 in
19:19 70.5 °F 53.1 °F 29.7 in NE 7.1 mph 13 mph 53.9% 0 in
19:24 70.7 °F 53.4 °F 29.7 in NNE 7.6 mph 12.7 mph 54.5% 0 in
19:29 70.7 °F 54.9 °F 29.7 in NE 7.1 mph 13.7 mph 57.4% 0 in
19:34 70.3 °F 54.1 °F 29.7 in NE 6.2 mph 15 mph 56.6% 0 in
19:39 70.3 °F 52.9 °F 29.7 in NE 7.1 mph 15 mph 54.3% 0 in
19:44 70.3 °F 52.5 °F 29.7 in NNE 8.7 mph 13 mph 53.3% 0 in
19:49 70.5 °F 53.2 °F 29.7 in NNE 7.8 mph 9.2 mph 54.1% 0 in
19:54 70.3 °F 54.5 °F 29.7 in NNE 6.2 mph 15.2 mph 57.1% 0 in
19:59 70.2 °F 55.8 °F 29.7 in NNE 7 mph 15 mph 60.4% 0 in
20:04 70 °F 56.1 °F 29.7 in NE 8.1 mph 13.8 mph 61.4% 0 in
20:09 69.6 °F 56.5 °F 29.7 in NE 8.3 mph 15.2 mph 62.6% 0 in
20:14 69.4 °F 56.7 °F 29.7 in NE 8.5 mph 15.2 mph 63.7% 0 in
20:19 69.3 °F 56.1 °F 29.7 in NE 8.6 mph 15.2 mph 63% 0 in
20:24 69.1 °F 56.3 °F 29.7 in NE 8.7 mph 15 mph 63.7% 0 in
20:29 68.7 °F 56.3 °F 29.7 in NE 8.7 mph 16.1 mph 64.5% 0 in
20:34 68.5 °F 56.3 °F 29.7 in NE 8.7 mph 16.1 mph 65% 0 in
20:39 68.4 °F 56.7 °F 29.7 in NE 8.7 mph 16 mph 66% 0 in
20:44 68.2 °F 56.7 °F 29.7 in NNE 8.7 mph 15.2 mph 66.3% 0 in
20:49 67.8 °F 56.5 °F 29.8 in NE 8.9 mph 16.1 mph 67.3% 0 in
20:54 67.5 °F 56.5 °F 29.8 in NE 9.2 mph 16 mph 68% 0 in
20:59 67.3 °F 56.7 °F 29.8 in NE 8.8 mph 14 mph 68.7% 0 in
21:04 66.9 °F 56.7 °F 29.8 in NE 8.1 mph 14 mph 69.8% 0 in
21:09 66.7 °F 56.8 °F 29.8 in NE 8.1 mph 13 mph 70.8% 0 in
21:14 66.6 °F 56.8 °F 29.8 in NNE 8.1 mph 10.4 mph 71% 0 in
21:19 66.4 °F 57 °F 29.8 in NE 7.5 mph 10.7 mph 72% 0 in
21:24 66 °F 56.8 °F 29.8 in NNE 6.4 mph 11 mph 72.1% 0 in
21:29 65.8 °F 57 °F 29.8 in NE 6.8 mph 11.8 mph 73% 0 in
21:34 65.7 °F 56.8 °F 29.8 in NNE 7.4 mph 12 mph 73.2% 0 in
21:39 65.5 °F 57 °F 29.8 in NE 7.2 mph 12 mph 74% 0 in
21:44 65.1 °F 56.7 °F 29.8 in NE 6.9 mph 12.3 mph 74.2% 0 in
21:49 64.9 °F 56.8 °F 29.8 in NE 7.3 mph 13 mph 75% 0 in
21:54 64.8 °F 56.7 °F 29.8 in NNE 8.1 mph 13 mph 75% 0 in
21:59 64.8 °F 56.5 °F 29.8 in NNE 8.1 mph 13.8 mph 75% 0 in
22:04 64.6 °F 56.5 °F 29.8 in NNE 8.1 mph 14 mph 75.2% 0 in
22:09 64.2 °F 56.7 °F 29.8 in NNE 8.3 mph 13 mph 76% 0 in
22:14 64.2 °F 56.5 °F 29.8 in NE 8.7 mph 13 mph 76% 0 in
22:19 64 °F 56.3 °F 29.8 in NE 8.3 mph 14 mph 76% 0 in
22:24 64 °F 56.3 °F 29.8 in NE 7.6 mph 14 mph 76% 0 in
22:29 63.9 °F 56.3 °F 29.8 in NE 7.5 mph 12 mph 76.2% 0 in
22:34 63.9 °F 56.5 °F 29.8 in NE 7.4 mph 11.5 mph 77% 0 in
22:39 63.7 °F 56.3 °F 29.8 in NE 7 mph 12 mph 77% 0 in
22:44 63.5 °F 56.3 °F 29.8 in NE 6.4 mph 11 mph 77.5% 0 in
22:49 63.3 °F 56.3 °F 29.8 in NE 6.4 mph 10.7 mph 78% 0 in
22:54 63.3 °F 56.3 °F 29.8 in NE 6.4 mph 11.2 mph 78% 0 in
22:59 63.3 °F 56.3 °F 29.8 in NE 6.4 mph 11 mph 78% 0 in
23:04 63.1 °F 56.5 °F 29.8 in NE 6.4 mph 10.4 mph 78.9% 0 in
23:09 63 °F 56.3 °F 29.8 in NE 6.4 mph 11.5 mph 79% 0 in
23:14 63 °F 56.3 °F 29.8 in NNE 6.4 mph 12 mph 79% 0 in
23:19 62.8 °F 56.1 °F 29.8 in NNE 5.8 mph 9.2 mph 79.1% 0 in
23:24 62.6 °F 56.3 °F 29.8 in NE 4.7 mph 11.5 mph 80% 0 in
23:29 62.8 °F 56.5 °F 29.8 in NE 5.2 mph 12 mph 80% 0 in
23:34 62.8 °F 56.5 °F 29.8 in NE 5.9 mph 10 mph 80% 0 in
23:39 62.4 °F 56.3 °F 29.8 in NE 5.3 mph 7 mph 80% 0 in
23:44 62.4 °F 56.1 °F 29.8 in NE 4.3 mph 7 mph 80% 0 in
23:49 62.4 °F 56.1 °F 29.8 in NE 4.2 mph 7 mph 80% 0 in
23:54 62.4 °F 56.1 °F 29.8 in NNE 4 mph 6 mph 80% 0 in
23:59 62.4 °F 56.1 °F 29.8 in NNE 3.1 mph 5 mph 80% 0 in
Murcia-Puente Tocinos, España
Compliments of Weather Underground - 2.75 mb

La estación de MeteoMurcia.com, publica sus datos en los siguientes proyectos:

Weather Underground PWS IMURCIAP2 Meteoclimatic www.awekas.at

W3Counter
Web Analytics